East Clinton, Illinois
Current Conditions -  °F | °C
As of 9:35 AM on Monday 22 Dec 2014 (Local Time) from KCWI Reporting Station
Overcast Overcast  
Wind Chill: 26°   Ceiling: 4300
Heat Index: 36°   Visibility: 5mi
Dew Point: 30°   Wind: 15mph
Humidity: 81%   Direction: 110°ESE
Pressure: 29.79"   Gusts: NA
Location:  41.8428°N, 90.1189°W
Report Text: KCWI 221535Z AUTO 11013KT 5SM OVC043 02/M01 A2979 RMK AO1
Loading
Personal Weather Stations






























Interactive Weather Map New forecast layout! Learn more

10-Day Weather Forecast

Advertisements
Track Severe Weather on mobile